createdAt,value
2022-10-31T00:05:19.790Z,101709.56
2022-10-31T00:10:35.094Z,101707.28
2022-10-31T00:15:50.599Z,101693.31
2022-10-31T00:21:05.854Z,101702.44
2022-10-31T00:26:20.773Z,101700.72
2022-10-31T00:31:35.817Z,101705.03
2022-10-31T00:36:51.792Z,101707.84
2022-10-31T00:42:07.180Z,101718.50
2022-10-31T00:47:24.816Z,101721.06
2022-10-31T00:52:39.577Z,101719.03
2022-10-31T00:57:55.196Z,101730.44
2022-10-31T01:03:10.844Z,101724.84
2022-10-31T01:08:25.878Z,101711.63
2022-10-31T01:13:40.803Z,101706.53
2022-10-31T01:18:55.806Z,101715.25
2022-10-31T01:24:10.824Z,101718.34
2022-10-31T01:29:26.121Z,101706.16
2022-10-31T01:34:41.820Z,101695.47
2022-10-31T01:39:57.141Z,101693.19
2022-10-31T01:45:12.823Z,101686.31
2022-10-31T01:50:27.794Z,101678.44
2022-10-31T01:55:42.822Z,101690.94
2022-10-31T02:00:59.617Z,101689.41
2022-10-31T02:06:17.812Z,101690.69
2022-10-31T02:11:32.816Z,101689.94
2022-10-31T02:16:48.147Z,101689.69
2022-10-31T02:22:03.833Z,101688.16
2022-10-31T02:27:19.151Z,101696.03
2022-10-31T02:32:35.582Z,101687.66
2022-10-31T02:37:50.828Z,101679.00
2022-10-31T02:43:06.107Z,101693.00
2022-10-31T02:48:22.120Z,101689.47
2022-10-31T02:53:37.604Z,101694.31
2022-10-31T02:58:53.135Z,101687.41
2022-10-31T03:04:08.663Z,101688.44
2022-10-31T03:09:23.807Z,101678.28
2022-10-31T03:14:40.139Z,101684.91
2022-10-31T03:19:55.829Z,101689.78
2022-10-31T03:25:11.152Z,101691.81
2022-10-31T03:30:27.249Z,101691.81
2022-10-31T03:35:42.816Z,101694.63
2022-10-31T03:40:58.166Z,101686.97
2022-10-31T03:46:13.823Z,101694.63
2022-10-31T03:51:29.160Z,101694.06
2022-10-31T03:56:47.157Z,101699.66
2022-10-31T04:02:04.947Z,101699.66
2022-10-31T04:07:20.112Z,101698.38
2022-10-31T04:12:35.838Z,101692.03
2022-10-31T04:18:01.089Z,101694.31
2022-10-31T04:23:18.845Z,101690.75
2022-10-31T04:28:35.222Z,101687.97
2022-10-31T04:33:50.839Z,101676.75
2022-10-31T04:39:05.801Z,101684.63
2022-10-31T04:44:27.115Z,101682.56
2022-10-31T04:49:44.152Z,101679.25
2022-10-31T04:54:59.854Z,101672.63
2022-10-31T05:00:26.859Z,101678.50
2022-10-31T05:05:42.612Z,101681.81
2022-10-31T05:11:03.259Z,101676.75
2022-10-31T05:16:21.143Z,101677.28
2022-10-31T05:22:02.929Z,101667.13
2022-10-31T05:27:19.890Z,101652.94
2022-10-31T05:32:35.180Z,101657.00
2022-10-31T05:38:19.843Z,101663.88
2022-10-31T05:43:36.850Z,101660.34
2022-10-31T05:48:52.854Z,101671.25
2022-10-31T05:54:26.171Z,101663.41
2022-10-31T05:59:42.054Z,101648.66
2022-10-31T06:04:56.879Z,101651.22
2022-10-31T06:10:12.162Z,101656.06
2022-10-31T06:15:31.883Z,101650.97
2022-10-31T06:20:48.839Z,101655.06
2022-10-31T06:26:05.165Z,101656.34
2022-10-31T06:31:21.838Z,101653.31
2022-10-31T06:36:40.004Z,101660.94
2022-10-31T06:41:58.116Z,101657.16
2022-10-31T06:47:15.488Z,101663.53
2022-10-31T06:52:43.524Z,101666.34
2022-10-31T06:58:02.818Z,101662.75
2022-10-31T07:03:20.858Z,101666.06
2022-10-31T07:08:36.078Z,101671.66
2022-10-31T07:13:51.251Z,101667.38
2022-10-31T07:19:07.049Z,101658.22
2022-10-31T07:24:23.101Z,101661.53
2022-10-31T07:29:52.831Z,101663.56
2022-10-31T07:35:08.834Z,101669.16
2022-10-31T07:40:35.911Z,101665.09
2022-10-31T07:45:51.159Z,101665.63
2022-10-31T07:51:29.858Z,101665.91
2022-10-31T07:57:03.879Z,101671.78
2022-10-31T08:02:19.602Z,101676.63
2022-10-31T08:08:07.158Z,101687.03
2022-10-31T08:13:23.177Z,101687.53
2022-10-31T08:18:39.683Z,101681.47
2022-10-31T08:23:56.867Z,101681.16
2022-10-31T08:29:12.200Z,101680.41
2022-10-31T08:34:28.868Z,101678.34
2022-10-31T08:40:04.241Z,101673.53
2022-10-31T08:45:19.865Z,101668.69
2022-10-31T08:50:34.861Z,101670.72
2022-10-31T08:55:49.864Z,101664.38
2022-10-31T09:01:06.741Z,101668.44
2022-10-31T09:06:21.920Z,101669.72
2022-10-31T09:11:37.165Z,101656.28
2022-10-31T09:16:53.231Z,101659.09
2022-10-31T09:22:24.936Z,101649.16
2022-10-31T09:27:39.866Z,101652.69
2022-10-31T11:16:12.940Z,101462.53
2022-10-31T11:21:27.981Z,101485.97
2022-10-31T11:26:42.939Z,101463.25
2022-10-31T11:31:57.974Z,101463.56
2022-10-31T11:37:12.983Z,101461.13
2022-10-31T11:42:28.298Z,101441.94
2022-10-31T11:47:43.938Z,101428.13
2022-10-31T11:52:58.936Z,101420.66
